LEZG/ZAZ METAR and TAF weather

Enter ICAO airport designator
Station Type Date Time Source
LEZG METAR 2021/02/27 04:00 UTC NOAA

LEZG 270400Z 26008KT CAVOK 09/06 Q1028


Station Type Date Time Source
LEZG Decoded METAR 2021/02/27 04:00 UTC NOAA

Zaragoza / Aeropuerto, Spain (LEZG) 41-40N 001-01W 258M
Feb 26, 2021 - 11:00 PM EST / 2021.02.27 0400 UTC
Wind: from the W (260 degrees) at 9 MPH (8 KT):0
Visibility: greater than 7 mile(s):0
Temperature: 48 F (9 C)
Dew Point: 42 F (6 C)
Relative Humidity: 81%
Pressure (altimeter): 30.36 in. Hg (1028 hPa)
ob: LEZG 270400Z 26008KT CAVOK 09/06 Q1028
cycle: 4

Station Type Date Time Source
LEZG TAF 2021/02/26 18:27 UTC NOAA

TAF TAF LEZG 261700Z 2618/2718 VRB03KT 9999 FEW030 TX17/2714Z TN07/2706Z
BECMG 2620/2622 30010KT PROB30
TEMPO 2700/2708 3000 BR BKN015
TEMPO 2710/2718 30015G25KT

Example: see airport list